Time;durP1;ratioP1;P1;durP2;ratioP2;P2;SDS_P1;SDS_P2;PMS_P1;PMS_P2;Temp;Humidity;BMP_temperature;BMP_pressure;BME280_temperature;BME280_humidity;BME280_pressure;Samples;Min_cycle;Max_cycle;Signal;HPM_P1;HPM_P2
2021/06/01 00:01:39;;;;;;;0.40;0.40;;;;;;;8.79;89.11;100720.65;1760923;80;21080;-41
2021/06/01 00:04:06;;;;;;;1.02;1.02;;;;;;;8.77;89.13;100718.72;1741183;82;21050;-41
2021/06/01 00:06:33;;;;;;;1.25;0.82;;;;;;;8.76;89.12;100719.81;1741142;82;21361;-43
2021/06/01 00:09:00;;;;;;;1.40;0.98;;;;;;;8.73;89.30;100722.52;1741145;81;21137;-41
2021/06/01 00:11:26;;;;;;;0.47;0.35;;;;;;;8.74;89.52;100723.34;1741321;82;21547;-41
2021/06/01 00:13:53;;;;;;;0.78;0.78;;;;;;;8.74;89.63;100716.52;1741205;82;21030;-41
2021/06/01 00:16:19;;;;;;;0.78;0.75;;;;;;;8.74;89.62;100725.52;1791381;80;21006;-42
2021/06/01 00:18:46;;;;;;;0.68;0.68;;;;;;;8.75;89.66;100718.16;1779564;80;21076;-42
2021/06/01 00:21:13;;;;;;;1.37;0.93;;;;;;;8.77;89.64;100721.45;1762005;81;21039;-41
2021/06/01 00:23:41;;;;;;;0.75;0.72;;;;;;;8.80;89.66;100720.91;1741290;81;21066;-43
2021/06/01 00:26:10;;;;;;;0.88;0.88;;;;;;;8.81;89.47;100719.30;1741168;82;21069;-42
2021/06/01 00:28:39;;;;;;;0.98;0.80;;;;;;;8.83;89.77;100716.33;1737187;81;21066;-42
2021/06/01 00:31:06;;;;;;;0.60;0.60;;;;;;;8.83;89.81;100711.70;1739929;82;21058;-43
2021/06/01 00:33:32;;;;;;;0.62;0.55;;;;;;;8.85;89.96;100716.86;1739834;82;20987;-40
2021/06/01 00:35:59;;;;;;;1.90;1.05;;;;;;;8.87;90.21;100710.62;1739700;81;21074;-41
2021/06/01 00:38:26;;;;;;;0.62;0.62;;;;;;;8.90;90.34;100710.64;1706972;83;21062;-42
2021/06/01 00:40:53;;;;;;;1.37;0.65;;;;;;;8.93;90.02;100715.04;1706757;82;21135;-41
2021/06/01 00:43:20;;;;;;;1.47;0.72;;;;;;;8.96;89.89;100704.97;1706661;84;21098;-41
2021/06/01 00:45:47;;;;;;;1.07;0.95;;;;;;;8.98;89.90;100705.53;1693002;82;21709;-42
2021/06/01 00:48:13;;;;;;;2.20;0.65;;;;;;;8.97;89.82;100702.51;1706558;84;21067;-41
2021/06/01 00:50:40;;;;;;;0.60;0.60;;;;;;;8.99;89.99;100698.98;1650415;86;21548;-41
2021/06/01 00:53:07;;;;;;;0.75;0.72;;;;;;;9.00;89.84;100696.55;1678026;85;21062;-41
2021/06/01 00:55:34;;;;;;;2.05;0.95;;;;;;;9.01;89.97;100699.55;1734851;82;21058;-42
2021/06/01 00:58:01;;;;;;;1.25;0.93;;;;;;;9.00;89.73;100699.28;1735172;82;21031;-41
2021/06/01 01:02:57;;;;;;;1.60;0.93;;;;;;;9.03;89.62;100697.93;1726538;83;21513;-41
2021/06/01 01:05:31;;;;;;;0.50;0.50;;;;;;;9.03;89.57;100706.92;1706718;84;21074;-42
2021/06/01 01:08:31;;;;;;;1.52;0.98;;;;;;;9.03;89.86;100700.11;1706369;84;21596;-42
2021/06/01 01:10:47;;;;;;;1.10;0.78;;;;;;;9.03;89.74;100690.57;1702423;84;21107;-41
2021/06/01 01:13:13;;;;;;;1.90;1.10;;;;;;;9.06;89.90;100690.59;1665305;84;21083;-41
2021/06/01 01:15:40;;;;;;;1.15;1.05;;;;;;;9.06;89.99;100695.22;1650879;85;21563;-42
2021/06/01 01:18:14;;;;;;;1.22;1.12;;;;;;;9.07;89.84;100692.77;1735131;82;21596;-42
2021/06/01 01:20:53;;;;;;;1.22;0.88;;;;;;;9.06;89.90;100694.67;1739979;82;21030;-41
2021/06/01 01:23:21;;;;;;;0.65;0.55;;;;;;;9.06;89.98;100700.67;1699013;83;21891;-42
2021/06/01 01:25:58;;;;;;;1.00;0.90;;;;;;;9.06;89.80;100690.59;1696102;84;21092;-43
2021/06/01 01:28:33;;;;;;;1.62;0.78;;;;;;;9.04;89.94;100694.92;1725544;83;21003;-41
2021/06/01 01:31:10;;;;;;;0.57;0.57;;;;;;;9.07;89.82;100700.94;1728299;81;21042;-41
2021/06/01 01:33:38;;;;;;;1.87;1.22;;;;;;;9.07;89.81;100689.48;1764682;80;21034;-41
2021/06/01 01:36:09;;;;;;;2.10;1.00;;;;;;;9.06;89.93;100689.22;1788622;80;21050;-41
2021/06/01 01:38:35;;;;;;;2.80;1.52;;;;;;;9.06;90.19;100691.13;1773438;80;21055;-41
2021/06/01 01:41:12;;;;;;;0.85;0.82;;;;;;;9.06;90.22;100687.86;1757225;80;21026;-43
2021/06/01 01:43:41;;;;;;;0.80;0.80;;;;;;;9.07;90.24;100689.48;1728594;81;21603;-42
2021/06/01 01:46:14;;;;;;;0.78;0.78;;;;;;;9.08;90.23;100687.61;1729100;83;21054;-42
2021/06/01 01:51:44;;;;;;;1.95;0.68;;;;;;;9.09;90.34;100685.96;1788613;80;21054;-42
2021/06/01 01:54:14;;;;;;;1.02;0.93;;;;;;;9.09;90.50;100700.14;1788359;78;21026;-41
2021/06/01 01:56:45;;;;;;;2.40;0.62;;;;;;;9.10;90.49;100699.05;1733658;81;21110;-41
2021/06/01 01:59:19;;;;;;;1.17;1.07;;;;;;;9.09;90.70;100696.05;1758435;80;21039;-43
2021/06/01 02:01:50;;;;;;;1.27;0.90;;;;;;;9.11;90.51;100695.25;1787786;80;21034;-40
2021/06/01 02:04:28;;;;;;;1.00;0.62;;;;;;;9.12;90.59;100686.79;1788595;78;21098;-41
2021/06/01 02:06:55;;;;;;;1.55;0.85;;;;;;;9.11;90.63;100684.34;1788350;80;21058;-41
2021/06/01 02:09:22;;;;;;;1.65;0.85;;;;;;;9.11;90.62;100694.70;1764268;80;21081;-42
2021/06/01 02:11:49;;;;;;;0.35;0.35;;;;;;;9.10;90.87;100687.63;1788502;80;21579;-41
2021/06/01 02:14:17;;;;;;;1.00;0.93;;;;;;;9.11;90.75;100685.70;1788466;79;21034;-42
2021/06/01 02:16:45;;;;;;;2.65;0.80;;;;;;;9.13;90.69;100689.00;1788364;80;21026;-41
2021/06/01 02:19:15;;;;;;;0.95;0.95;;;;;;;9.12;90.79;100691.43;1788584;78;21858;-41
2021/06/01 02:24:41;;;;;;;0.53;0.53;;;;;;;9.10;90.86;100688.14;1706952;80;21061;-43
2021/06/01 02:27:27;;;;;;;0.75;0.75;;;;;;;9.11;91.08;100682.98;1788145;80;21107;-41
2021/06/01 02:30:09;;;;;;;2.35;1.20;;;;;;;9.11;91.21;100679.71;1717797;82;21023;-44
2021/06/01 02:32:51;;;;;;;1.75;1.32;;;;;;;9.13;91.09;100680.81;1788915;80;20976;-41
2021/06/01 02:35:25;;;;;;;2.10;1.92;;;;;;;9.13;91.36;100686.27;1788413;80;21534;-42
2021/06/01 02:37:51;;;;;;;1.60;1.10;;;;;;;9.12;91.36;100684.06;1788594;79;21078;-42
2021/06/01 02:40:21;;;;;;;1.12;1.02;;;;;;;9.13;91.46;100682.18;1759389;80;21011;-41
2021/06/01 02:42:47;;;;;;;0.65;0.45;;;;;;;9.16;91.54;100677.55;1738518;81;21571;-40
2021/06/01 02:45:18;;;;;;;1.17;0.80;;;;;;;9.16;91.43;100673.47;1730490;81;21027;-41
2021/06/01 02:47:44;;;;;;;1.05;1.05;;;;;;;9.16;91.39;100677.55;1724318;82;21082;-41
2021/06/01 02:50:13;;;;;;;0.93;0.85;;;;;;;9.17;91.51;100681.39;1722798;82;21813;-43
2021/06/01 02:52:41;;;;;;;1.45;1.07;;;;;;;9.18;91.56;100689.03;1735464;80;21606;-40
2021/06/01 02:55:10;;;;;;;1.20;1.07;;;;;;;9.19;91.51;100691.47;1770640;80;21069;-41
2021/06/01 02:57:40;;;;;;;3.08;1.17;;;;;;;9.22;91.51;100686.03;1759546;81;21055;-42
2021/06/01 03:00:10;;;;;;;1.80;0.93;;;;;;;9.23;91.57;100682.23;1765143;80;21441;-40
2021/06/01 03:02:37;;;;;;;1.60;0.70;;;;;;;9.24;91.58;100677.05;1770555;80;21014;-41
2021/06/01 03:05:05;;;;;;;0.57;0.53;;;;;;;9.24;91.65;100677.05;1788706;80;21072;-41
2021/06/01 03:07:31;;;;;;;3.00;1.05;;;;;;;9.24;91.55;100670.23;1788795;80;21057;-40
2021/06/01 03:10:00;;;;;;;0.85;0.85;;;;;;;9.26;91.63;100666.70;1788691;80;21050;-42
2021/06/01 03:14:59;;;;;;;;;;;;;;;9.29;91.18;100664.80;1760079;80;20991;-41
2021/06/01 03:17:26;;;;;;;0.72;0.57;;;;;;;9.33;90.97;100676.02;1747463;82;20249;-42
2021/06/01 03:19:52;;;;;;;2.45;1.45;;;;;;;9.34;90.94;100671.64;1757379;81;21070;-42
2021/06/01 03:22:19;;;;;;;0.75;0.70;;;;;;;9.35;90.86;100670.57;1729043;82;21114;-41
2021/06/01 03:24:46;;;;;;;1.22;0.80;;;;;;;9.35;90.56;100674.66;1759278;80;21039;-41
2021/06/01 03:27:13;;;;;;;1.50;0.85;;;;;;;9.37;90.59;100673.86;1759416;81;21027;-42
2021/06/01 03:29:39;;;;;;;1.02;0.72;;;;;;;9.38;90.06;100668.67;1755529;80;21094;-40
2021/06/01 03:32:06;;;;;;;0.60;0.60;;;;;;;9.38;90.28;100663.77;1773272;80;21575;-42
2021/06/01 03:34:33;;;;;;;0.60;0.40;;;;;;;9.39;90.53;100668.93;1723965;81;21023;-41
2021/06/01 03:37:00;;;;;;;1.17;0.70;;;;;;;9.41;90.58;100666.77;1732202;82;21061;-42
2021/06/01 03:39:28;;;;;;;1.27;1.12;;;;;;;9.43;90.68;100665.95;1731620;82;21037;-41
2021/06/01 03:41:54;;;;;;;0.88;0.85;;;;;;;9.45;90.43;100667.87;1733043;81;21023;-42
2021/06/01 03:44:21;;;;;;;0.28;0.28;;;;;;;9.47;90.35;100675.27;1695145;83;21132;-40
2021/06/01 03:46:47;;;;;;;0.82;0.47;;;;;;;9.52;89.98;100669.53;1723391;83;21009;-41
2021/06/01 03:49:14;;;;;;;0.57;0.57;;;;;;;9.54;90.15;100670.09;1731661;82;21074;-41
2021/06/01 03:51:40;;;;;;;1.22;1.10;;;;;;;9.54;89.62;100664.63;1737349;81;21651;-41
2021/06/01 03:54:06;;;;;;;0.80;0.80;;;;;;;9.54;89.65;100661.91;1750486;80;21033;-41
2021/06/01 03:56:36;;;;;;;0.98;0.98;;;;;;;9.57;89.61;100660.84;1748649;81;21040;-42
2021/06/01 03:59:04;;;;;;;0.68;0.68;;;;;;;9.62;89.56;100667.68;1732180;82;21036;-40
2021/06/01 04:01:30;;;;;;;0.98;0.98;;;;;;;9.68;89.42;100659.77;1711490;82;21040;-41
2021/06/01 04:03:57;;;;;;;1.02;0.93;;;;;;;9.71;89.56;100663.87;1748017;80;21802;-42
2021/06/01 04:06:23;;;;;;;1.35;1.02;;;;;;;9.75;88.87;100667.72;1744863;81;21019;-41
2021/06/01 04:08:49;;;;;;;0.82;0.82;;;;;;;9.77;88.64;100664.17;1723877;83;21210;-41
2021/06/01 04:11:16;;;;;;;0.93;0.85;;;;;;;9.80;88.10;100671.00;1721402;83;21031;-43
2021/06/01 04:13:43;;;;;;;1.10;0.80;;;;;;;9.81;88.65;100663.89;1723860;83;21034;-41
2021/06/01 04:16:09;;;;;;;1.72;1.10;;;;;;;9.87;88.24;100668.30;1709608;82;21055;-44
2021/06/01 04:18:37;;;;;;;1.40;0.98;;;;;;;9.93;87.90;100672.39;1745925;81;21056;-42
2021/06/01 04:21:04;;;;;;;1.47;1.17;;;;;;;9.98;88.14;100675.14;1687118;82;21093;-42
2021/06/01 04:23:31;;;;;;;1.75;1.45;;;;;;;10.03;87.39;100672.41;1737055;82;21045;-41
2021/06/01 04:25:57;;;;;;;0.78;0.78;;;;;;;10.09;86.83;100670.80;1737124;82;21034;-42
2021/06/01 04:28:24;;;;;;;1.12;0.70;;;;;;;10.14;86.59;100664.53;1737296;82;21008;-42
2021/06/01 04:30:50;;;;;;;0.95;0.95;;;;;;;10.23;87.15;100665.61;1739730;81;21022;-41
2021/06/01 04:33:17;;;;;;;3.37;0.80;;;;;;;10.35;87.21;100660.47;1741185;82;21050;-43
2021/06/01 04:35:44;;;;;;;0.60;0.60;;;;;;;10.48;85.65;100662.12;1741508;82;21384;-41
2021/06/01 04:38:10;;;;;;;0.60;0.60;;;;;;;10.57;84.96;100662.38;1741363;82;21033;-41
2021/06/01 04:40:37;;;;;;;0.72;0.70;;;;;;;10.65;83.46;100661.00;1741340;81;21042;-42
2021/06/01 04:43:03;;;;;;;4.97;0.93;;;;;;;10.70;83.24;100650.87;1741540;81;21047;-44
2021/06/01 04:45:29;;;;;;;0.60;0.60;;;;;;;10.78;82.74;100656.88;1766210;80;21299;-43
2021/06/01 04:47:55;;;;;;;1.52;0.98;;;;;;;10.85;82.18;100658.23;1786832;78;21341;-42
2021/06/01 04:50:22;;;;;;;1.35;0.98;;;;;;;10.93;81.06;100659.62;1791199;78;21614;-41
2021/06/01 04:52:48;;;;;;;0.47;0.33;;;;;;;10.97;80.91;100656.58;1791096;79;21288;-41
2021/06/01 04:55:15;;;;;;;0.60;0.60;;;;;;;10.99;80.29;100663.96;1791267;80;21552;-41
2021/06/01 04:57:42;;;;;;;0.75;0.40;;;;;;;11.01;79.16;100662.33;1791479;80;21029;-41
2021/06/01 05:00:10;;;;;;;0.30;0.30;;;;;;;10.95;79.37;100665.08;1790971;78;21034;-42
2021/06/01 05:02:37;;;;;;;0.98;0.50;;;;;;;10.96;79.61;100668.63;1787116;80;21038;-41
2021/06/01 05:05:05;;;;;;;0.80;0.70;;;;;;;11.01;80.39;100671.90;1791171;78;21665;-43
2021/06/01 05:07:32;;;;;;;0.68;0.68;;;;;;;11.05;79.79;100668.86;1791404;80;21058;-42
2021/06/01 05:10:03;;;;;;;0.60;0.60;;;;;;;11.07;80.17;100666.12;1790134;78;21023;-41
2021/06/01 05:12:30;;;;;;;1.02;0.40;;;;;;;11.10;80.21;100671.06;1791392;80;21035;-42
2021/06/01 05:14:57;;;;;;;0.60;0.45;;;;;;;11.13;80.49;100670.50;1791401;80;21066;-43
2021/06/01 05:17:25;;;;;;;1.55;0.50;;;;;;;11.18;79.68;100671.84;1788941;80;21022;-42
2021/06/01 05:19:52;;;;;;;0.85;0.50;;;;;;;11.22;78.46;100682.23;1789648;80;21497;-42
2021/06/01 05:22:18;;;;;;;1.87;0.65;;;;;;;11.19;77.61;100685.78;1790678;80;21579;-41
2021/06/01 05:24:45;;;;;;;0.42;0.37;;;;;;;11.16;76.30;100690.45;1791347;78;21030;-42
2021/06/01 05:27:12;;;;;;;0.37;0.33;;;;;;;11.16;75.15;100690.45;1791273;80;21531;-42
2021/06/01 05:29:43;;;;;;;0.40;0.33;;;;;;;11.16;75.67;100680.06;1791411;78;21042;-42
2021/06/01 05:32:35;;;;;;;2.00;0.40;;;;;;;11.18;75.86;100688.27;1756140;81;21008;-41
2021/06/01 05:34:37;;;;;;;0.55;0.40;;;;;;;11.21;75.12;100688.25;1737152;81;21085;-43
2021/06/01 05:37:04;;;;;;;0.30;0.30;;;;;;;11.21;75.30;100694.28;1791317;80;21006;-41
2021/06/01 05:39:30;;;;;;;0.25;0.20;;;;;;;11.26;74.42;100675.11;1791330;78;21065;-41
2021/06/01 05:41:57;;;;;;;0.33;0.28;;;;;;;11.31;73.40;100684.67;1791449;80;21582;-42
2021/06/01 05:44:23;;;;;;;0.20;0.20;;;;;;;11.34;74.67;100678.63;1791535;78;20991;-41
2021/06/01 05:46:50;;;;;;;0.25;0.25;;;;;;;11.44;74.76;100682.70;1791411;80;21066;-43
2021/06/01 05:49:16;;;;;;;0.40;0.30;;;;;;;11.52;74.48;100696.34;1791145;80;21030;-41
2021/06/01 05:51:43;;;;;;;0.30;0.30;;;;;;;11.53;73.27;100686.50;1791458;80;21038;-41
2021/06/01 05:54:09;;;;;;;0.20;0.20;;;;;;;11.58;74.17;100686.48;1791387;78;21085;-43
2021/06/01 05:56:36;;;;;;;0.75;0.75;;;;;;;11.60;74.25;100683.47;1791631;80;21038;-42
2021/06/01 05:59:04;;;;;;;0.70;0.42;;;;;;;11.58;74.65;100670.61;1791489;78;21041;-41
2021/06/01 06:01:30;;;;;;;1.20;0.30;;;;;;;11.62;73.40;100681.25;1791376;80;21030;-41
2021/06/01 06:03:56;;;;;;;0.28;0.28;;;;;;;11.59;74.19;100678.52;1710063;81;21074;-44
2021/06/01 06:06:23;;;;;;;0.95;0.55;;;;;;;11.56;73.92;100672.25;1791271;80;21047;-42
2021/06/01 06:08:51;;;;;;;0.42;0.42;;;;;;;11.53;73.46;100678.29;1791583;78;21051;-41
2021/06/01 06:11:17;;;;;;;0.20;0.20;;;;;;;11.48;74.64;100675.58;1791542;80;21050;-42
2021/06/01 06:13:44;;;;;;;0.30;0.30;;;;;;;11.45;74.10;100687.09;1791572;78;21433;-41
2021/06/01 06:16:17;;;;;;;0.72;0.55;;;;;;;11.43;74.81;100678.34;1791506;80;21610;-41
2021/06/01 06:18:43;;;;;;;0.17;0.17;;;;;;;11.43;74.30;100681.07;1790543;78;21034;-42
2021/06/01 06:21:11;;;;;;;0.40;0.30;;;;;;;11.48;74.75;100678.31;1767304;80;21077;-41
2021/06/01 06:23:41;;;;;;;0.28;0.28;;;;;;;11.52;74.76;100685.41;1791604;78;21026;-41
2021/06/01 06:26:08;;;;;;;0.15;0.15;;;;;;;11.53;74.50;100685.13;1731073;81;21540;-42
2021/06/01 06:28:35;;;;;;;0.50;0.50;;;;;;;11.52;76.09;100690.34;1741439;82;21025;-42
2021/06/01 06:31:03;;;;;;;0.20;0.20;;;;;;;11.56;75.36;100685.13;1752907;81;21039;-42
2021/06/01 06:33:29;;;;;;;0.60;0.30;;;;;;;11.58;75.88;100694.69;1759608;81;20987;-42
2021/06/01 06:35:56;;;;;;;0.33;0.23;;;;;;;11.55;74.81;100684.31;1788823;78;21470;-41
2021/06/01 06:38:22;;;;;;;0.62;0.42;;;;;;;11.49;74.43;100695.55;1789089;79;21022;-41
2021/06/01 06:41:22;;;;;;;0.20;0.20;;;;;;;11.43;73.97;100689.28;1788780;78;21054;-42
2021/06/01 06:43:23;;;;;;;0.30;0.25;;;;;;;11.37;73.56;100690.38;1776532;80;21021;-41
2021/06/01 06:45:49;;;;;;;0.15;0.15;;;;;;;11.29;72.47;100688.23;1788868;78;21026;-42
2021/06/01 06:48:16;;;;;;;0.30;0.30;;;;;;;11.27;73.38;100695.33;1788684;79;21098;-42
2021/06/01 06:50:43;;;;;;;0.35;0.35;;;;;;;11.27;74.35;100690.42;1759381;81;20991;-42
2021/06/01 06:53:09;;;;;;;0.50;0.50;;;;;;;11.28;73.31;100689.34;1788729;80;21595;-42
2021/06/01 06:55:36;;;;;;;0.00;0.00;;;;;;;11.28;73.04;100683.87;1788688;78;21043;-41
2021/06/01 06:58:02;;;;;;;2.85;0.72;;;;;;;11.29;74.32;100682.76;1788750;80;21026;-41
2021/06/01 07:00:29;;;;;;;1.27;0.50;;;;;;;11.37;75.30;100687.12;1788656;78;21058;-41
2021/06/01 07:02:56;;;;;;;0.20;0.20;;;;;;;11.50;73.43;100685.70;1788747;80;21606;-41
2021/06/01 07:05:22;;;;;;;0.30;0.20;;;;;;;11.58;72.46;100689.22;1788646;78;21026;-42
2021/06/01 07:07:53;;;;;;;0.68;0.30;;;;;;;11.58;71.90;100685.11;1788584;80;21030;-42
2021/06/01 07:10:20;;;;;;;0.45;0.45;;;;;;;11.56;72.29;100694.14;1788781;78;21033;-41
2021/06/01 07:12:47;;;;;;;0.17;0.17;;;;;;;11.48;72.44;100685.16;1788746;80;21006;-42
2021/06/01 07:15:28;;;;;;;0.47;0.30;;;;;;;11.44;73.15;100700.48;1759506;81;21064;-42
2021/06/01 07:17:56;;;;;;;2.87;0.53;;;;;;;11.43;73.41;100697.48;1789024;80;21030;-41
2021/06/01 07:20:25;;;;;;;0.93;0.65;;;;;;;11.47;73.63;100679.95;1788794;78;21947;-42
2021/06/01 07:22:51;;;;;;;0.20;0.20;;;;;;;11.51;72.64;100685.95;1788834;80;21030;-42
2021/06/01 07:25:18;;;;;;;0.40;0.40;;;;;;;11.51;72.88;100694.17;1788771;78;21022;-41
2021/06/01 07:27:45;;;;;;;0.30;0.30;;;;;;;11.53;72.20;100697.45;1759548;81;21038;-42
2021/06/01 07:30:13;;;;;;;0.15;0.15;;;;;;;11.58;72.22;100683.74;1789046;78;20991;-42
2021/06/01 07:32:40;;;;;;;1.25;0.30;;;;;;;11.67;72.36;100687.25;1790636;80;21622;-41
2021/06/01 07:35:07;;;;;;;0.30;0.30;;;;;;;11.73;72.45;100696.54;1790634;78;21176;-41
2021/06/01 07:37:34;;;;;;;0.60;0.57;;;;;;;11.75;72.38;100688.06;1790813;80;21034;-41
2021/06/01 07:40:00;;;;;;;0.50;0.50;;;;;;;11.69;72.22;100683.14;1790770;78;21548;-42
2021/06/01 07:42:26;;;;;;;1.12;0.53;;;;;;;11.68;73.13;100684.80;1790590;80;21496;-42
2021/06/01 07:44:53;;;;;;;0.37;0.37;;;;;;;11.75;73.69;100682.58;1790204;78;21034;-43
2021/06/01 07:47:19;;;;;;;0.53;0.53;;;;;;;11.89;74.22;100680.87;1790364;80;21579;-41
2021/06/01 07:49:46;;;;;;;0.42;0.37;;;;;;;12.03;72.69;100681.89;1790740;78;21098;-42
2021/06/01 07:52:12;;;;;;;0.20;0.20;;;;;;;12.08;71.04;100674.75;1790715;80;21137;-42
2021/06/01 07:54:39;;;;;;;0.20;0.20;;;;;;;12.05;70.43;100685.72;1790694;78;21010;-42
2021/06/01 07:57:06;;;;;;;0.57;0.50;;;;;;;11.97;71.58;100678.92;1790332;80;21416;-43
2021/06/01 07:59:32;;;;;;;0.55;0.50;;;;;;;11.91;71.59;100684.15;1790650;78;21078;-42
2021/06/01 08:02:00;;;;;;;0.40;0.40;;;;;;;11.91;70.98;100680.05;1790572;80;21074;-43
2021/06/01 08:04:26;;;;;;;0.88;0.40;;;;;;;11.88;70.92;100680.62;1790674;78;21023;-43
2021/06/01 08:06:53;;;;;;;0.60;0.57;;;;;;;11.85;71.02;100677.05;1790769;80;21092;-42
2021/06/01 08:09:23;;;;;;;0.93;0.75;;;;;;;11.79;71.50;100669.95;1790404;78;21043;-42
2021/06/01 08:11:49;;;;;;;0.62;0.53;;;;;;;11.77;70.78;100677.62;1790613;80;21027;-42
2021/06/01 08:14:16;;;;;;;2.52;0.65;;;;;;;11.79;71.26;100674.89;1790653;78;21571;-41
2021/06/01 08:16:44;;;;;;;0.70;0.70;;;;;;;11.85;70.87;100692.11;1790699;80;21027;-43
2021/06/01 08:19:32;;;;;;;0.20;0.20;;;;;;;11.86;71.47;100684.70;1790565;78;21574;-42
2021/06/01 08:22:31;;;;;;;1.05;0.40;;;;;;;11.86;70.55;100678.67;1790668;80;21034;-41
2021/06/01 08:24:43;;;;;;;0.23;0.23;;;;;;;11.85;70.45;100677.05;1786331;78;21038;-43
2021/06/01 08:27:10;;;;;;;0.50;0.50;;;;;;;11.88;71.32;100679.25;1790501;80;21508;-41
2021/06/01 08:29:36;;;;;;;0.60;0.50;;;;;;;11.92;70.40;100683.59;1790599;78;21026;-41
2021/06/01 08:32:04;;;;;;;1.32;0.88;;;;;;;11.97;71.26;100677.56;1790622;79;21041;-42
2021/06/01 08:34:30;;;;;;;0.30;0.30;;;;;;;12.04;70.37;100665.73;1790454;78;21054;-41
2021/06/01 08:36:57;;;;;;;0.37;0.37;;;;;;;12.09;69.63;100674.48;1790725;80;21074;-43
2021/06/01 08:39:26;;;;;;;0.62;0.62;;;;;;;12.13;69.31;100677.45;1790612;78;21065;-42
2021/06/01 08:41:54;;;;;;;0.30;0.30;;;;;;;12.15;70.17;100676.63;1790540;80;21556;-42
2021/06/01 08:44:22;;;;;;;0.35;0.35;;;;;;;12.18;69.88;100674.68;1790601;78;21933;-41
2021/06/01 08:46:50;;;;;;;0.90;0.42;;;;;;;12.27;69.26;100675.72;1762071;80;21588;-42
2021/06/01 08:49:18;;;;;;;0.53;0.30;;;;;;;12.34;68.28;100667.16;1790549;80;21026;-42
2021/06/01 08:51:45;;;;;;;0.98;0.53;;;;;;;12.42;67.87;100670.11;1790542;80;21583;-42
2021/06/01 08:54:11;;;;;;;0.30;0.30;;;;;;;12.53;67.30;100663.17;1790479;80;21046;-41
2021/06/01 08:56:38;;;;;;;0.40;0.40;;;;;;;12.62;68.78;100673.23;1790535;80;21078;-43
2021/06/01 08:59:05;;;;;;;0.40;0.33;;;;;;;12.75;68.81;100670.38;1790433;80;21563;-41
2021/06/01 09:01:32;;;;;;;0.47;0.47;;;;;;;12.81;67.33;100668.39;1790428;80;21026;-41
2021/06/01 09:04:00;;;;;;;0.85;0.40;;;;;;;12.76;66.55;100667.91;1790427;78;21192;-43
2021/06/01 09:06:33;;;;;;;0.95;0.50;;;;;;;12.70;66.42;100664.94;1790730;80;20983;-41
2021/06/01 09:11:40;;;;;;;0.70;0.47;;;;;;;12.70;68.20;100667.68;1790564;80;21042;-42
2021/06/01 09:22:39;;;;;;;0.65;0.47;;;;;;;12.69;67.32;100659.20;1790255;80;21476;-41
2021/06/01 09:25:15;;;;;;;0.30;0.30;;;;;;;12.72;65.96;100668.22;1790026;78;21178;-44
2021/06/01 09:27:51;;;;;;;0.47;0.47;;;;;;;12.75;65.90;100667.63;1790058;80;21070;-42
2021/06/01 09:30:41;;;;;;;0.50;0.50;;;;;;;12.74;65.50;100674.80;1790405;80;21047;-41
2021/06/01 09:33:22;;;;;;;0.90;0.40;;;;;;;12.75;65.86;100667.63;1790101;80;21018;-42
2021/06/01 09:35:53;;;;;;;0.50;0.45;;;;;;;12.82;66.47;100657.14;1789668;80;21145;-42
2021/06/01 09:38:44;;;;;;;0.70;0.70;;;;;;;12.88;66.64;100666.97;1789940;80;21070;-43
2021/06/01 09:41:19;;;;;;;1.25;0.42;;;;;;;12.92;64.95;100663.09;1790189;80;21086;-42
2021/06/01 09:44:00;;;;;;;0.20;0.20;;;;;;;12.98;65.45;100654.24;1788617;78;21066;-43
2021/06/01 09:46:45;;;;;;;0.42;0.40;;;;;;;13.12;66.88;100663.42;1789948;80;20994;-42
2021/06/01 09:49:20;;;;;;;0.70;0.62;;;;;;;13.28;66.47;100650.39;1774720;80;21455;-42
2021/06/01 09:52:05;;;;;;;0.45;0.35;;;;;;;13.43;65.55;100654.88;1790388;80;21547;-42
2021/06/01 09:54:45;;;;;;;1.32;0.40;;;;;;;13.51;64.28;100642.68;1764350;78;21715;-42
2021/06/01 09:57:18;;;;;;;0.72;0.60;;;;;;;13.54;64.91;100646.77;1788452;78;21099;-42
2021/06/01 10:00:18;;;;;;;0.30;0.30;;;;;;;13.53;62.98;100646.52;1782550;78;21523;-41
2021/06/01 10:02:52;;;;;;;0.40;0.40;;;;;;;13.54;64.23;100652.25;1755175;80;21073;-42
2021/06/01 10:05:32;;;;;;;0.72;0.70;;;;;;;13.53;62.62;100645.14;1788647;78;21034;-42
2021/06/01 10:08:14;;;;;;;0.57;0.55;;;;;;;13.48;62.61;100652.08;1789497;80;21025;-43
2021/06/01 10:10:51;;;;;;;0.30;0.30;;;;;;;13.38;62.28;100648.05;1785600;78;21599;-44
2021/06/01 10:13:17;;;;;;;0.70;0.70;;;;;;;13.36;62.01;100648.93;1813480;78;21049;-42
2021/06/01 10:15:44;;;;;;;0.57;0.57;;;;;;;13.36;61.60;100644.81;1802025;78;21568;-41
2021/06/01 10:18:11;;;;;;;0.28;0.28;;;;;;;13.35;62.21;100646.72;1789053;80;21082;-42
2021/06/01 10:20:39;;;;;;;0.20;0.20;;;;;;;13.35;62.20;100646.72;1811641;78;21019;-42
2021/06/01 10:23:07;;;;;;;1.75;0.57;;;;;;;13.36;61.42;100642.06;1801515;78;21050;-42
2021/06/01 10:25:34;;;;;;;0.13;0.13;;;;;;;13.36;62.03;100633.84;1790383;78;21018;-41
2021/06/01 10:28:04;;;;;;;0.47;0.25;;;;;;;13.34;62.71;100636.30;1790118;80;21331;-41
2021/06/01 10:30:34;;;;;;;0.23;0.23;;;;;;;13.40;63.60;100649.95;1807738;78;21430;-41
2021/06/01 10:33:07;;;;;;;1.17;0.85;;;;;;;13.44;63.86;100637.29;1765037;79;21014;-41
2021/06/01 10:35:37;;;;;;;0.50;0.50;;;;;;;13.49;63.50;100641.34;1792812;78;21540;-41
2021/06/01 10:44:22;;;;;;;0.50;0.40;;;;;;;13.52;61.53;100629.77;1725462;83;21051;-41
2021/06/01 10:52:13;;;;;;;0.57;0.42;;;;;;;13.64;61.33;100628.78;1729163;82;21054;-42
2021/06/01 10:54:50;;;;;;;1.05;0.80;;;;;;;13.72;60.66;100625.92;1740054;82;21023;-42
2021/06/01 10:57:17;;;;;;;1.05;0.45;;;;;;;13.83;61.13;100630.73;1739611;82;21098;-43
2021/06/01 11:02:20;;;;;;;0.42;0.42;;;;;;;14.05;61.63;100619.95;1759009;81;21040;-41
2021/06/01 11:05:12;;;;;;;0.72;0.72;;;;;;;14.19;61.20;100609.84;1758990;80;21063;-42
2021/06/01 11:07:57;;;;;;;1.27;0.57;;;;;;;14.29;59.98;100612.98;1728826;83;21599;-41
2021/06/01 11:10:39;;;;;;;0.42;0.42;;;;;;;14.37;59.70;100616.41;1737367;81;21012;-41
2021/06/01 11:13:09;;;;;;;0.68;0.68;;;;;;;14.40;57.92;100617.75;1740305;82;21595;-41
2021/06/01 11:15:40;;;;;;;0.28;0.28;;;;;;;14.35;58.66;100612.34;1727376;82;21027;-43
2021/06/01 11:18:29;;;;;;;0.30;0.30;;;;;;;14.31;60.08;100613.48;1740323;82;21934;-42
2021/06/01 11:35:38;;;;;;;0.60;0.37;;;;;;;15.10;55.80;100600.81;1732025;82;21050;-42
2021/06/01 11:38:12;;;;;;;1.10;0.35;;;;;;;15.13;55.93;100597.44;1729020;82;21610;-43
2021/06/01 11:43:15;;;;;;;0.30;0.20;;;;;;;15.16;55.96;100596.28;1732041;82;21397;-42
2021/06/01 11:54:10;;;;;;;0.57;0.45;;;;;;;14.97;57.37;100593.63;1722827;83;21036;-42
2021/06/01 11:57:42;;;;;;;0.47;0.47;;;;;;;14.88;57.03;100595.44;1730178;82;21561;-41
2021/06/01 12:13:15;;;;;;;0.20;0.20;;;;;;;14.27;56.65;100604.75;1723085;83;21057;-40
2021/06/01 12:18:30;;;;;;;0.42;0.40;;;;;;;14.18;57.96;100612.31;1732207;82;21046;-42
2021/06/01 12:20:51;;;;;;;0.35;0.35;;;;;;;14.14;57.26;100601.69;1731254;81;21608;-42
2021/06/01 12:23:40;;;;;;;0.62;0.62;;;;;;;14.16;58.16;100599.99;1732358;82;21514;-41
2021/06/01 12:32:26;;;;;;;0.37;0.37;;;;;;;14.16;57.56;100598.62;1730467;81;21099;-41
2021/06/01 13:56:04;;;;;;;0.95;0.47;;;;;;;14.37;57.75;100600.48;1726598;81;21042;-41
2021/06/01 14:09:40;;;;;;;0.30;0.30;;;;;;;14.30;56.00;100600.86;1726843;81;21043;-42
2021/06/01 14:31:19;;;;;;;0.78;0.60;;;;;;;14.15;57.92;100595.06;1727046;81;21082;-42
2021/06/01 14:39:14;;;;;;;0.33;0.33;;;;;;;13.95;57.47;100593.45;1693098;80;21043;-41
2021/06/01 14:55:39;;;;;;;1.32;0.50;;;;;;;13.83;58.24;100601.33;1726893;81;21040;-41
2021/06/01 15:32:51;;;;;;;0.65;0.40;;;;;;;13.37;58.96;100631.34;1724809;82;21023;-43
2021/06/01 17:07:27;;;;;;;1.02;0.95;;;;;;;12.47;63.32;100623.48;1739651;81;21014;-46
2021/06/01 17:12:47;;;;;;;0.70;0.70;;;;;;;12.39;63.21;100622.73;1727710;81;21019;-46
2021/06/01 17:15:16;;;;;;;0.55;0.50;;;;;;;12.37;62.73;100627.69;1737976;81;21414;-47
2021/06/01 17:17:50;;;;;;;0.30;0.30;;;;;;;12.36;62.85;100629.33;1739792;82;21060;-46
2021/06/01 17:36:10;;;;;;;0.25;0.25;;;;;;;12.27;63.47;100623.66;1726815;81;21078;-46
2021/06/01 17:38:37;;;;;;;2.58;0.72;;;;;;;12.26;63.75;100628.33;1737290;81;21101;-46
2021/06/01 17:41:09;;;;;;;0.70;0.70;;;;;;;12.24;63.43;100629.72;1731757;81;21568;-46